hindi

Recently Published Books

Book Title Subject of Book
Name of Publisher Publish Year
ISBN Number Issue Date
Sl No.Book TitleName of PublisherSubject of BookPublish VolumePublish YearPublish EditionNo. of PagesBook PriceLanguageISBN No.ISSUE Date
1. Conductive Heat Transfer CookbookAmod KumarBook is related to Mechanical Engineering dealing with conductive heat transfer. The book presents all aspects of conductive heat transfer which can be used to simply otherwise thee-dimensional nature of heat transfer in real life.120171287299English978-93-5279-902-2 18-08-2017
2. Recent Trends in Management Humanities and Social SciencesDr Ajit Kumar PandeyThis book is a conference proceedings that would consist of selected full papers after due review by an expert review committeeFirst2017First200400English978-93-5281-395-7 18-08-2017
3. GENERAL KNOWLEDGEEXCELLENCEWe have a great pleasure in presenting this book Excellence General Knowledge according to the new trends of various competitive exams. This book covers a wide range of general knowledge in a single concise volume.General Knowledge is one of the fastest changing subject as the pace of development is very quick, and a knowledge can become state within a short-period. 12017FIRST120275English978-93-5281-394-0 18-08-2017
4. Proceedings of the National Seminar on NEW TRENDS IN ANALYSISDr Reeja P VProceedings of the National Seminar on NEW TRENDS IN ANALYSIS held on the 25th and 26th of September 2014 at Nehru Arts and Science College, Kanhangad, Padnekat P.O., Kasaragod District - 671314, Kerala1201711430English978-93-5281-375-9 18-08-2017
5. THE ROLE OF THE LIBRARY AND INFORMATION SYSTEM IN COLLEGE EDUCATIONANUP KUMAR ROUTHTHIS BOOK IS A COLLECTION OF ESSAYS FROM VARIOUS WRITER FROM LIBRARY AND INFORMATION SCIENCE FIELD. IT IS A SINGLE BOOK20171ST PUBLISHED100200English978-93-5279-340-2 18-08-2017
6. TAN KEE BHAKTI MAN KA PREMMukesh Kumar YadavTAN KEE BHAKTI MAN KA PREM WRITTEN BY MUKESH KUMAR YADAV FICTION NOVELONE2017FIRST150250Hindi978-93-5281-364-3 18-08-2017
7. LIBRARY WITH LEGAL SOFTWARE FOR ADVOCATESSOLANKI HETAL CHIMANBHAIABOUT BASIC LIBRARY DIFFERENT TYPES OF LEGAL SOFTWARE WITH PRICE AND MAXIMUM USE SOFTWARE BY ADVOCATE ETC 120171230100Gujarati978-93-5281-374-2 18-08-2017
8. Parvaz e HayatSaiyed Anwar JamalThis is a collection of Urdu nazm from Saiyed Anwar Jamal Anwar12017First132250Urdu978-93-5279-172-9 18-08-2017
9. SURE SHOT IELTS EXAM QUESTIONSArunlataThis first edition of sure shot ielts exam questions is a book meant for speaking and writing which also include real time speaking practice CD as per the IDP & BRITISH COUNCIL exam pattern120171271135English978-93-5281-371-1 18-08-2017
10. End of EnduranceRachana AryaEnd of Endurance is an emotional ride through the murky waters of a wretched marriage. It is a moving exploration of a pervasive situation in which you cant seem to find your way out of the quagmire even when you are aware that the situation is not a good one. 12017 267195English978-93-5281-228-8 18-08-2017
11. KolahalSandip namdev Kolahal A poetry book depend on realizesim,human relationship,love,break up, depression,sandness.602017First85100Marathi978-93-5281-353-7 18-08-2017
12. A FARMERs HANDBOOKD A DIRECTORY OF DIRECT MARKETING AGRIBUSINESS COMPANIESRavi NandiTo reduce the information gap and to assist farming community MANAGE has made efforts to compile major direct marketing companies which are procuring agricultural commodities directly from the farmers The directory will provide farmers the option of large number of buyers for their produce at market places with assured price for their commodities1201711420English978-93-5281-393-3 18-08-2017
13. SIVAAGAMA VISHAYA DIPIKAAPAPAKANTI NEELAKANTHAMSAIVAAGAMA 120171227200Sanskrit978-93-5281-372-8 18-08-2017
14. HONOUR KILLING  One2017First220400English978-81-932808-8-1 17-08-2017
15. Python for Programming Anna University  NA20171699550English"978-93-5286-129-3"17-08-2017
16. DSSSB Teachers TGT Domestic Science Exam Guide  1st20171st 2017180145English"978-93-86845-15-3"17-08-2017
17. DSSSB Teachers TGT Natural Science Exam Guide  1st20171st 2017316260English"978-93-86845-14-6"17-08-2017
18. The Wave of Intellect   12017140150English"978-93-86447-34-0"17-08-2017
19. Combinatorics and Graph Theory  12017First Edition154140English"978-93-5273-490-0"17-08-2017
20. The Little Red Hen Big Book  12017132250English"978-93-5275-172-3"17-08-2017
21. I Am an Apple Big Book  12017132250English"978-93-5275-171-6"17-08-2017
22. Caps Hats Socks and Mittens Big Book   12017132250English"978-93-5275-170-9"17-08-2017
23. Services Business Management  12017First Edition380350English"978-93-5273-489-4"17-08-2017
24. The Step up Mindset for New Managers  120171200299English"978-93-86867-15-5"17-08-2017
25. 100 Desi Stories Book 3 Legendary Leaders  320171292299English"978-93-86867-14-8"17-08-2017
26. The True GuideParvej AalamThe True Guide is a valuable resource for shortly gaining complete and authentic Indo-Islamic and General Knowledge and also serves as the best guide for various Aligarh Muslim University Entrance Examinations as XI, Diploma in Engineering, B.A., B.S.W. etc. This is also beneficial for various other competitive exams.120171192145English978-93-5281-302-5 17-08-2017
27. Get it Done  120171240299English"978-93-86867-13-1"17-08-2017
28. A Better Brain at Any Age  120171244299English"978-93-86867-12-4"17-08-2017
29. Race for Space  120171220299English"978-93-86867-11-7"17-08-2017
30. The Practicing Mind  120171168199English"978-93-86867-10-0"17-08-2017
31. INDUSTRIAL AND ORGANIZATIONAL PSYCHOLOGY  I2017First140150English"978-93-87020-15-3"17-08-2017
32. Tamizh Ilakkanam Katral Karpiththalil Pudhiya Anugumurai  120171188140Tamil"978-93-86787-18-7"17-08-2017
33. Social Psychology  I2017First150160English"978-93-87020-14-6"17-08-2017
34. Business Economics  12017First Edition184198English"978-93-5273-488-7"17-08-2017
35. General Psychology  I2017First160180English"978-93-87020-13-9"17-08-2017
36. Work and Society  I2017First165180English"978-93-87020-12-2"17-08-2017
37. Fundamentals of Nursing  NA20171015361519English"978-93-5286-128-6"17-08-2017
38. Sparks of Divinity Teachings of B K S Iyengar  120171256350English"978-93-86867-09-4"17-08-2017
39. Samvida Ka Dansh  120171162100Hindi"978-93-86673-82-4"17-08-2017
40. Financial Accounting  12017First Edition782450English"978-93-5273-487-0"17-08-2017
41. Entrepreneurship and Strategic Management MBA  NA2017First 244335English"978-93-5271-301-1"17-08-2017
42. Home Science 1  12017 80200English"978-93-87072-00-8"17-08-2017
43. Consumer Behavior  NA201711536804English"978-93-5286-127-9"17-08-2017
44. Crime and Society  I2017First165180English"978-93-87020-11-5"17-08-2017
45. WTO and Agricultural Subsidy Policies Impact on South East Asian Countries  1201711353780English"978-93-87057-16-6"17-08-2017
46. Design Your Day  120171144199English"978-93-86867-08-7"17-08-2017
47. Population And Society  I2017First170200English"978-93-87020-10-8"17-08-2017
48. 101 Answers to the Toughest Interview Questions  120171208299English"978-93-86867-07-0"17-08-2017
49. Vegetables and Flowers from Seeds in Tropical SemiTropical and Temperate Climates  1201713419548English"978-93-87057-15-9"17-08-2017
50. Tamizhil Naaval Sirukadhai Uruvakkam Samakala Ethirvinaigal Idhazhgal  120171229170Tamil"978-93-86787-17-0"17-08-2017
12